Time;durP1;ratioP1;P1;durP2;ratioP2;P2;SDS_P1;SDS_P2;PMS_P1;PMS_P2;Temp;Humidity;BMP_temperature;BMP_pressure;BME280_temperature;BME280_humidity;BME280_pressure;Samples;Min_cycle;Max_cycle;Signal;HPM_P1;HPM_P2
2023/04/11 00:00:19;;;;;;;8.37;7.00;;;12.40;99.90;;;;;;4990330;28;20221;-75
2023/04/11 00:02:45;;;;;;;11.17;7.13;;;12.40;99.90;;;;;;5014562;28;20236;-73
2023/04/11 00:05:11;;;;;;;10.27;7.10;;;12.40;99.90;;;;;;4996870;28;20223;-76
2023/04/11 00:07:37;;;;;;;8.33;6.23;;;12.40;99.90;;;;;;4990890;28;20650;-75
2023/04/11 00:10:03;;;;;;;8.80;6.70;;;12.40;99.90;;;;;;5012952;28;20220;-75
2023/04/11 00:12:29;;;;;;;10.07;6.40;;;12.40;99.90;;;;;;4987552;28;20608;-74
2023/04/11 00:14:55;;;;;;;7.87;5.97;;;12.40;99.90;;;;;;5014005;28;20220;-75
2023/04/11 00:17:22;;;;;;;10.67;6.97;;;12.40;99.90;;;;;;4996524;28;20225;-74
2023/04/11 00:19:52;;;;;;;9.83;6.63;;;12.40;99.90;;;;;;5002306;28;20213;-75
2023/04/11 00:22:17;;;;;;;10.90;6.93;;;12.40;99.90;;;;;;4998319;28;20209;-74
2023/04/11 00:24:44;;;;;;;10.83;7.67;;;12.30;99.90;;;;;;5000659;28;20204;-75
2023/04/11 00:27:10;;;;;;;8.40;6.13;;;12.30;99.90;;;;;;4994289;28;20217;-75
2023/04/11 00:29:35;;;;;;;10.23;6.87;;;12.30;99.90;;;;;;4995195;28;20206;-75
2023/04/11 00:32:02;;;;;;;10.03;6.33;;;12.30;99.90;;;;;;4987950;28;20721;-75
2023/04/11 00:34:28;;;;;;;7.73;5.93;;;12.30;99.90;;;;;;5001228;28;20205;-74
2023/04/11 00:36:53;;;;;;;10.10;6.60;;;12.30;99.90;;;;;;4997033;28;20231;-75
2023/04/11 00:39:25;;;;;;;8.30;6.40;;;12.20;99.90;;;;;;5008118;28;20237;-75
2023/04/11 00:41:51;;;;;;;7.53;6.27;;;12.20;99.90;;;;;;4997217;28;20750;-75
2023/04/11 00:44:16;;;;;;;9.80;7.10;;;12.20;99.90;;;;;;4994556;28;20304;-74
2023/04/11 00:46:44;;;;;;;9.30;7.20;;;12.10;99.90;;;;;;4996435;28;20303;-74
2023/04/11 00:49:10;;;;;;;8.60;6.53;;;12.10;99.90;;;;;;4995550;28;20186;-74
2023/04/11 00:51:36;;;;;;;8.83;6.30;;;12.00;99.90;;;;;;4997656;28;20528;-74
2023/04/11 00:54:02;;;;;;;9.43;6.87;;;12.00;99.90;;;;;;4997755;28;20255;-75
2023/04/11 00:56:28;;;;;;;10.20;7.27;;;12.00;99.90;;;;;;5000879;28;20590;-75
2023/04/11 00:58:54;;;;;;;10.13;7.17;;;12.00;99.90;;;;;;4999412;28;20205;-73
2023/04/11 01:01:22;;;;;;;8.37;6.63;;;11.90;99.90;;;;;;4995081;28;20735;-73
2023/04/11 01:03:48;;;;;;;10.10;6.43;;;11.90;99.90;;;;;;4999706;28;20212;-74
2023/04/11 01:06:17;;;;;;;8.93;6.30;;;11.90;99.90;;;;;;4998481;28;20228;-74
2023/04/11 01:08:45;;;;;;;8.60;6.93;;;11.80;99.90;;;;;;5005809;28;20206;-74
2023/04/11 01:11:11;;;;;;;9.37;6.77;;;11.90;99.90;;;;;;4993723;28;20209;-74
2023/04/11 01:13:40;;;;;;;9.97;7.00;;;11.80;99.90;;;;;;4995891;28;20198;-75
2023/04/11 01:16:07;;;;;;;10.53;7.10;;;11.90;99.90;;;;;;4995708;28;20272;-74
2023/04/11 01:18:32;;;;;;;8.57;6.30;;;11.90;99.90;;;;;;4990594;28;20641;-74
2023/04/11 01:20:59;;;;;;;10.77;6.77;;;11.80;99.90;;;;;;4995379;28;20295;-75
2023/04/11 01:23:26;;;;;;;11.80;7.10;;;11.80;99.90;;;;;;5006437;28;20236;-74
2023/04/11 01:25:52;;;;;;;9.90;5.80;;;11.70;99.90;;;;;;4996067;28;20229;-73
2023/04/11 01:28:18;;;;;;;8.50;6.30;;;11.80;99.90;;;;;;4993552;28;20220;-73
2023/04/11 01:30:44;;;;;;;9.03;6.27;;;11.80;99.90;;;;;;4997453;28;20181;-73
2023/04/11 01:33:10;;;;;;;8.40;5.90;;;11.80;99.90;;;;;;4998947;28;20202;-72
2023/04/11 01:35:37;;;;;;;9.13;6.90;;;11.80;99.90;;;;;;4990984;28;20603;-74
2023/04/11 01:38:03;;;;;;;9.67;6.83;;;11.80;99.90;;;;;;5003813;28;20300;-74
2023/04/11 01:40:31;;;;;;;9.67;6.87;;;11.80;99.90;;;;;;5003140;28;20748;-73
2023/04/11 01:42:58;;;;;;;8.60;6.43;;;11.80;99.90;;;;;;5001875;28;20210;-75
2023/04/11 01:45:25;;;;;;;8.33;6.10;;;11.70;99.90;;;;;;5005102;28;20205;-73
2023/04/11 01:47:53;;;;;;;8.93;7.03;;;11.70;99.90;;;;;;4998252;28;20281;-73
2023/04/11 01:50:19;;;;;;;8.03;6.50;;;11.70;99.90;;;;;;4997786;28;20205;-73
2023/04/11 01:52:47;;;;;;;8.23;6.10;;;11.80;99.90;;;;;;4994916;28;20210;-75
2023/04/11 01:55:13;;;;;;;8.77;6.30;;;11.70;99.90;;;;;;5000575;28;20181;-74
2023/04/11 01:57:38;;;;;;;8.50;6.47;;;11.60;99.90;;;;;;4997972;28;20280;-74
2023/04/11 02:00:05;;;;;;;8.77;6.27;;;11.60;99.90;;;;;;5003679;28;20267;-74
2023/04/11 02:02:31;;;;;;;9.40;6.60;;;11.70;99.90;;;;;;4995205;28;20214;-74
2023/04/11 02:04:56;;;;;;;9.37;6.10;;;11.70;99.90;;;;;;5001099;28;20296;-74
2023/04/11 02:07:22;;;;;;;9.13;5.93;;;11.70;99.90;;;;;;4989459;28;20213;-74
2023/04/11 02:09:48;;;;;;;9.13;6.70;;;11.70;99.90;;;;;;5003768;28;20239;-72
2023/04/11 02:12:14;;;;;;;9.43;6.00;;;11.60;99.90;;;;;;4999071;28;20256;-73
2023/04/11 02:14:42;;;;;;;8.20;6.13;;;11.70;99.90;;;;;;5003740;28;20217;-74
2023/04/11 02:17:08;;;;;;;7.77;6.13;;;11.60;99.90;;;;;;5004222;28;20225;-74
2023/04/11 02:19:34;;;;;;;8.57;5.93;;;11.60;99.90;;;;;;5017474;28;20269;-73
2023/04/11 02:22:00;;;;;;;7.40;5.80;;;11.60;99.90;;;;;;5002873;28;20252;-74
2023/04/11 02:24:28;;;;;;;9.00;6.83;;;11.60;99.90;;;;;;5014254;28;20300;-74
2023/04/11 02:27:00;;;;;;;8.90;6.80;;;11.60;99.90;;;;;;4997988;28;20701;-74
2023/04/11 02:29:27;;;;;;;9.47;6.70;;;11.60;99.90;;;;;;4989996;28;20590;-74
2023/04/11 02:31:53;;;;;;;8.30;6.57;;;11.60;99.90;;;;;;5000885;28;20217;-74
2023/04/11 02:34:19;;;;;;;9.43;6.63;;;11.60;99.90;;;;;;4995693;28;20185;-74
2023/04/11 02:36:44;;;;;;;7.80;5.77;;;11.50;99.90;;;;;;4995609;28;20222;-74
2023/04/11 02:39:11;;;;;;;9.03;6.70;;;11.60;99.90;;;;;;4990572;28;20677;-75
2023/04/11 02:41:41;;;;;;;8.07;5.90;;;11.50;99.90;;;;;;4996818;28;20222;-74
2023/04/11 02:44:08;;;;;;;10.87;6.67;;;11.50;99.90;;;;;;4997919;28;20604;-74
2023/04/11 02:46:34;;;;;;;10.03;7.30;;;11.50;99.90;;;;;;4990681;28;20237;-74
2023/04/11 02:48:59;;;;;;;9.00;6.60;;;11.50;99.90;;;;;;5002683;28;20749;-74
2023/04/11 02:51:26;;;;;;;8.97;6.27;;;11.50;99.90;;;;;;4996971;28;20217;-74
2023/04/11 02:53:51;;;;;;;7.73;6.33;;;11.60;99.90;;;;;;5003084;28;20271;-76
2023/04/11 02:56:18;;;;;;;9.23;6.27;;;11.60;99.90;;;;;;4998795;28;20218;-73
2023/04/11 02:58:46;;;;;;;10.23;6.80;;;11.50;99.90;;;;;;4998814;28;20711;-74
2023/04/11 03:01:21;;;;;;;9.20;7.27;;;11.60;99.90;;;;;;5000667;28;20205;-76
2023/04/11 03:03:47;;;;;;;8.43;5.83;;;11.50;99.90;;;;;;5010113;28;20210;-74
2023/04/11 03:06:13;;;;;;;8.87;6.70;;;11.60;99.90;;;;;;5011699;28;20588;-74
2023/04/11 03:08:38;;;;;;;9.53;6.73;;;11.60;99.90;;;;;;4994444;28;20210;-75
2023/04/11 03:11:05;;;;;;;9.90;6.93;;;11.50;99.90;;;;;;4989104;28;20660;-75
2023/04/11 03:13:31;;;;;;;11.00;7.20;;;11.50;99.90;;;;;;4993948;28;20214;-74
2023/04/11 03:15:56;;;;;;;8.20;6.13;;;11.50;99.90;;;;;;4997918;28;20209;-75
2023/04/11 03:18:22;;;;;;;9.57;7.37;;;11.50;99.90;;;;;;5003811;28;20638;-75
2023/04/11 03:20:49;;;;;;;10.90;7.03;;;11.50;99.90;;;;;;4997298;28;20211;-74
2023/04/11 03:23:15;;;;;;;9.53;6.70;;;11.50;99.90;;;;;;4999515;28;20303;-73
2023/04/11 03:25:43;;;;;;;8.53;6.33;;;11.50;99.90;;;;;;5013998;28;20676;-75
2023/04/11 03:28:09;;;;;;;8.83;6.70;;;11.50;99.90;;;;;;4997649;28;20627;-75
2023/04/11 03:30:39;;;;;;;9.37;6.93;;;11.50;99.90;;;;;;4998846;28;20209;-74
2023/04/11 03:33:04;;;;;;;8.53;6.60;;;11.50;99.90;;;;;;5015391;28;20259;-74
2023/04/11 03:35:30;;;;;;;7.60;6.33;;;11.50;99.90;;;;;;4999258;28;20692;-73
2023/04/11 03:37:56;;;;;;;9.03;6.67;;;11.50;99.90;;;;;;5002545;28;20271;-74
2023/04/11 03:40:21;;;;;;;10.47;7.27;;;11.50;99.90;;;;;;5002497;28;20189;-73
2023/04/11 03:42:48;;;;;;;9.40;6.63;;;11.50;99.90;;;;;;4990330;28;20211;-75
2023/04/11 03:45:14;;;;;;;9.30;7.33;;;11.50;99.90;;;;;;4991832;28;20205;-75
2023/04/11 03:47:40;;;;;;;7.93;6.70;;;11.50;99.90;;;;;;4989813;28;20218;-74
2023/04/11 03:50:06;;;;;;;8.17;6.50;;;11.40;99.90;;;;;;4997129;28;20205;-75
2023/04/11 03:52:32;;;;;;;8.53;6.60;;;11.50;99.90;;;;;;4991778;28;20292;-75
2023/04/11 03:54:58;;;;;;;8.17;6.50;;;11.40;99.90;;;;;;4997405;28;20296;-73
2023/04/11 03:57:27;;;;;;;8.83;7.03;;;11.40;99.90;;;;;;4993154;28;20304;-75
2023/04/11 03:59:54;;;;;;;9.65;7.65;;;11.40;99.90;;;;;;4994816;28;20419;-75
2023/04/11 04:02:19;;;;;;;9.73;6.83;;;11.50;99.90;;;;;;4996084;28;20208;-73
2023/04/11 04:04:45;;;;;;;7.77;6.00;;;11.50;99.90;;;;;;4997233;28;20211;-75
2023/04/11 04:07:11;;;;;;;9.70;6.83;;;11.50;99.90;;;;;;4998009;28;20198;-75
2023/04/11 04:09:39;;;;;;;7.83;5.93;;;11.50;99.90;;;;;;4997359;28;20402;-73
2023/04/11 04:12:05;;;;;;;8.27;6.20;;;11.50;99.90;;;;;;4999810;28;20205;-74
2023/04/11 04:14:30;;;;;;;7.20;5.63;;;11.50;99.90;;;;;;4999194;28;20288;-73
2023/04/11 04:16:56;;;;;;;7.57;5.93;;;11.50;99.90;;;;;;5001524;28;20215;-73
2023/04/11 04:19:21;;;;;;;6.47;5.57;;;11.50;99.90;;;;;;4995309;28;20656;-76
2023/04/11 04:21:48;;;;;;;8.67;5.63;;;11.60;99.90;;;;;;4991635;28;20202;-74
2023/04/11 04:24:14;;;;;;;8.07;6.37;;;11.50;99.90;;;;;;4995530;28;20209;-73
2023/04/11 04:26:40;;;;;;;8.63;5.60;;;11.50;99.90;;;;;;4988458;28;20229;-75
2023/04/11 04:29:08;;;;;;;8.93;5.70;;;11.60;99.90;;;;;;4999114;28;20213;-74
2023/04/11 04:31:35;;;;;;;8.57;6.37;;;11.40;99.90;;;;;;4994128;28;20205;-74
2023/04/11 04:34:10;;;;;;;7.53;5.40;;;11.30;99.90;;;;;;4991244;28;20184;-74
2023/04/11 04:36:46;;;;;;;9.00;6.50;;;11.10;99.90;;;;;;4992540;28;20221;-74
2023/04/11 04:39:19;;;;;;;10.70;6.47;;;10.90;99.90;;;;;;4997580;28;20243;-74
2023/04/11 04:41:47;;;;;;;8.53;6.17;;;10.90;99.90;;;;;;4995621;28;20230;-74
2023/04/11 04:44:14;;;;;;;11.03;7.00;;;10.80;99.90;;;;;;4996633;28;20217;-73
2023/04/11 04:46:40;;;;;;;10.67;6.73;;;10.60;99.90;;;;;;4996118;28;20745;-72
2023/04/11 04:49:06;;;;;;;10.70;7.10;;;10.60;99.90;;;;;;4998045;28;20195;-74
2023/04/11 04:51:32;;;;;;;12.47;7.23;;;10.60;99.90;;;;;;4994959;28;20205;-74
2023/04/11 04:54:01;;;;;;;9.37;6.37;;;10.50;99.90;;;;;;5000883;28;20283;-75
2023/04/11 04:56:30;;;;;;;11.10;7.13;;;10.40;99.90;;;;;;4998622;28;20657;-74
2023/04/11 04:58:56;;;;;;;10.13;6.70;;;10.40;99.90;;;;;;4994577;28;20264;-73
2023/04/11 05:01:25;;;;;;;10.27;7.23;;;10.30;99.90;;;;;;4993862;28;20561;-72
2023/04/11 05:03:57;;;;;;;9.80;6.90;;;10.30;99.90;;;;;;4990136;28;20202;-73
2023/04/11 05:06:28;;;;;;;11.27;7.00;;;10.20;99.90;;;;;;4994278;28;20228;-72
2023/04/11 05:08:55;;;;;;;10.40;7.00;;;10.20;99.90;;;;;;4994274;28;20708;-73
2023/04/11 05:11:22;;;;;;;15.70;10.10;;;10.10;99.90;;;;;;4995340;28;20209;-73
2023/04/11 05:13:47;;;;;;;14.57;9.07;;;10.10;99.90;;;;;;4997358;28;20210;-73
2023/04/11 05:16:13;;;;;;;9.97;6.53;;;10.10;99.90;;;;;;4999550;28;20251;-72
2023/04/11 05:18:39;;;;;;;10.63;8.13;;;10.10;99.90;;;;;;4991738;28;20180;-74
2023/04/11 05:21:05;;;;;;;13.20;8.77;;;10.10;99.90;;;;;;5002713;28;20259;-73
2023/04/11 05:23:30;;;;;;;9.50;7.03;;;10.10;99.90;;;;;;4998381;28;20222;-74
2023/04/11 05:25:56;;;;;;;10.73;8.30;;;10.20;99.90;;;;;;5018332;28;20687;-73
2023/04/11 05:28:22;;;;;;;12.20;9.13;;;10.20;99.90;;;;;;5001056;28;20594;-74
2023/04/11 05:30:47;;;;;;;13.63;8.57;;;10.10;99.90;;;;;;5004311;28;20177;-74
2023/04/11 05:33:14;;;;;;;16.73;11.30;;;10.20;99.90;;;;;;5003199;28;20656;-76
2023/04/11 05:35:40;;;;;;;14.17;8.33;;;10.10;99.90;;;;;;5003747;28;20244;-74
2023/04/11 05:38:06;;;;;;;12.43;7.67;;;10.10;99.90;;;;;;4998679;28;20222;-74
2023/04/11 05:40:31;;;;;;;11.93;7.90;;;10.00;99.90;;;;;;4995549;28;20567;-73
2023/04/11 05:42:57;;;;;;;11.90;7.97;;;10.00;99.90;;;;;;5009812;28;20198;-74
2023/04/11 05:45:23;;;;;;;11.10;8.00;;;10.10;99.90;;;;;;4997118;28;20212;-74
2023/04/11 05:47:48;;;;;;;13.27;8.70;;;10.10;99.90;;;;;;4999214;28;20236;-74
2023/04/11 05:50:14;;;;;;;12.27;8.20;;;10.10;99.90;;;;;;4991477;28;20349;-74
2023/04/11 05:52:40;;;;;;;12.13;8.37;;;10.00;99.90;;;;;;4994920;28;20209;-75
2023/04/11 05:55:06;;;;;;;11.57;8.10;;;10.00;99.90;;;;;;5002670;28;20192;-74
2023/04/11 05:57:32;;;;;;;11.97;8.03;;;10.00;99.90;;;;;;4999665;28;20193;-72
2023/04/11 06:00:00;;;;;;;11.20;8.20;;;10.00;99.90;;;;;;4999911;28;20219;-75
2023/04/11 06:02:27;;;;;;;13.83;8.80;;;10.00;99.90;;;;;;5002115;28;20204;-72
2023/04/11 06:04:53;;;;;;;10.07;7.63;;;10.00;99.90;;;;;;5000362;28;20679;-74
2023/04/11 06:07:20;;;;;;;13.23;8.47;;;10.00;99.90;;;;;;5000010;28;20201;-74
2023/04/11 06:09:46;;;;;;;11.27;8.00;;;10.10;99.90;;;;;;4998300;28;20186;-75
2023/04/11 06:12:12;;;;;;;18.90;8.10;;;10.10;99.90;;;;;;5001564;28;20206;-74
2023/04/11 06:14:38;;;;;;;11.53;8.23;;;10.10;99.90;;;;;;5006770;28;20213;-74
2023/04/11 06:17:04;;;;;;;12.37;7.70;;;10.10;99.90;;;;;;5008505;28;20591;-72
2023/04/11 06:19:30;;;;;;;15.00;9.03;;;10.20;99.90;;;;;;4996340;28;20215;-72
2023/04/11 06:21:56;;;;;;;11.87;8.27;;;10.20;99.90;;;;;;4994145;28;20182;-74
2023/04/11 06:24:37;;;;;;;13.13;8.67;;;10.30;99.90;;;;;;4997248;28;20209;-74
2023/04/11 06:27:03;;;;;;;14.83;8.87;;;10.30;99.90;;;;;;4996751;28;20639;-73
2023/04/11 06:29:29;;;;;;;12.13;8.53;;;10.40;99.90;;;;;;4995751;28;20300;-74
2023/04/11 06:31:56;;;;;;;12.83;7.97;;;10.30;99.90;;;;;;4996629;28;20202;-77
2023/04/11 06:34:21;;;;;;;15.27;9.47;;;10.40;99.90;;;;;;5001176;28;20601;-77
2023/04/11 06:36:48;;;;;;;11.27;7.97;;;10.50;99.90;;;;;;5001135;28;20289;-76
2023/04/11 06:39:17;;;;;;;12.47;8.70;;;10.50;99.90;;;;;;5001451;28;20219;-76
2023/04/11 06:41:42;;;;;;;13.17;9.03;;;10.50;99.90;;;;;;4999029;28;20220;-74
2023/04/11 06:44:09;;;;;;;14.60;8.50;;;10.50;99.90;;;;;;5000773;28;20217;-73
2023/04/11 06:46:34;;;;;;;13.13;9.50;;;10.40;99.90;;;;;;4998493;28;20225;-72
2023/04/11 06:49:02;;;;;;;14.03;8.80;;;10.50;99.90;;;;;;5019230;28;20188;-74
2023/04/11 06:51:28;;;;;;;14.77;9.70;;;10.50;99.90;;;;;;4998859;28;20300;-72
2023/04/11 06:53:53;;;;;;;15.40;10.17;;;10.50;99.90;;;;;;5004277;28;20645;-74
2023/04/11 06:56:19;;;;;;;13.87;9.30;;;10.50;99.90;;;;;;4996639;28;20212;-74
2023/04/11 06:58:45;;;;;;;16.23;9.10;;;10.60;99.90;;;;;;4984434;28;20749;-74
2023/04/11 07:01:11;;;;;;;15.30;9.10;;;10.60;99.90;;;;;;4995882;28;20660;-75
2023/04/11 07:03:36;;;;;;;12.47;8.27;;;10.60;99.90;;;;;;5002506;28;20208;-75
2023/04/11 07:06:02;;;;;;;13.00;8.90;;;10.60;99.90;;;;;;5002733;28;20443;-76
2023/04/11 07:08:28;;;;;;;13.10;7.93;;;10.70;99.90;;;;;;4999689;28;20209;-74
2023/04/11 07:10:54;;;;;;;12.83;8.77;;;10.60;99.90;;;;;;5002161;28;20237;-75
2023/04/11 07:13:20;;;;;;;12.30;7.73;;;10.70;99.90;;;;;;5003565;28;20559;-76
2023/04/11 07:15:45;;;;;;;11.47;8.23;;;10.80;99.90;;;;;;4998257;28;20678;-73
2023/04/11 07:18:11;;;;;;;13.00;8.13;;;10.80;99.90;;;;;;5005498;28;20241;-75
2023/04/11 07:20:37;;;;;;;11.73;8.40;;;10.80;99.90;;;;;;4999514;28;20210;-74
2023/04/11 07:23:03;;;;;;;13.00;9.07;;;10.90;99.90;;;;;;5002838;28;20221;-75
2023/04/11 07:25:32;;;;;;;12.67;8.23;;;10.90;99.90;;;;;;5000936;28;20229;-73
2023/04/11 07:28:07;;;;;;;12.90;8.30;;;10.90;99.90;;;;;;5004626;28;20200;-75
2023/04/11 07:30:34;;;;;;;15.20;9.03;;;11.00;99.90;;;;;;5004018;28;20205;-74
2023/04/11 07:33:00;;;;;;;14.33;9.00;;;11.00;99.90;;;;;;5000326;28;20228;-75
2023/04/11 07:35:27;;;;;;;11.77;8.17;;;11.10;99.90;;;;;;5019388;28;20209;-75
2023/04/11 07:37:53;;;;;;;11.00;7.87;;;11.00;99.90;;;;;;5000510;28;20260;-74
2023/04/11 07:40:19;;;;;;;12.17;7.37;;;11.10;99.90;;;;;;5005295;28;20182;-75
2023/04/11 07:42:45;;;;;;;17.87;11.27;;;11.00;99.90;;;;;;4995229;28;20618;-74
2023/04/11 07:45:11;;;;;;;10.60;7.03;;;11.10;99.90;;;;;;4999826;28;20251;-75
2023/04/11 07:47:37;;;;;;;10.23;7.33;;;11.10;99.90;;;;;;4998080;28;20217;-75
2023/04/11 07:50:03;;;;;;;9.77;7.20;;;11.10;99.90;;;;;;5000747;28;20212;-74
2023/04/11 07:52:29;;;;;;;11.30;8.27;;;11.10;99.90;;;;;;5003928;28;20687;-73
2023/04/11 07:54:55;;;;;;;10.20;7.47;;;11.20;99.90;;;;;;4999638;28;20185;-74
2023/04/11 07:57:21;;;;;;;11.03;7.80;;;11.40;99.90;;;;;;5002097;28;20219;-75
2023/04/11 07:59:46;;;;;;;10.13;7.30;;;11.40;99.90;;;;;;5000819;28;20713;-74
2023/04/11 08:02:12;;;;;;;13.33;8.00;;;11.40;99.90;;;;;;5003636;28;20235;-74
2023/04/11 08:04:37;;;;;;;10.83;7.43;;;11.40;99.90;;;;;;5003161;28;20307;-74
2023/04/11 08:07:03;;;;;;;9.93;7.03;;;11.30;99.90;;;;;;5003129;28;20205;-75
2023/04/11 08:09:29;;;;;;;11.07;6.97;;;11.20;99.90;;;;;;4999777;28;20586;-72
2023/04/11 08:11:57;;;;;;;8.80;6.63;;;11.00;99.90;;;;;;4999656;28;20225;-74
2023/04/11 08:14:23;;;;;;;9.87;6.83;;;10.90;99.90;;;;;;5003102;28;20619;-74
2023/04/11 08:16:49;;;;;;;10.97;7.43;;;10.80;99.90;;;;;;4988927;28;20229;-74
2023/04/11 08:19:16;;;;;;;10.00;6.77;;;10.70;99.90;;;;;;4998929;28;20570;-74
2023/04/11 08:21:42;;;;;;;9.43;5.30;;;10.60;99.90;;;;;;4999632;28;20224;-73
2023/04/11 08:24:08;;;;;;;6.90;4.10;;;10.40;99.90;;;;;;5001661;28;20221;-73
2023/04/11 08:26:34;;;;;;;5.00;3.60;;;10.40;99.90;;;;;;4996394;28;20715;-73
2023/04/11 08:29:00;;;;;;;7.17;4.33;;;10.40;99.90;;;;;;4997624;28;20224;-75
2023/04/11 08:31:27;;;;;;;7.90;4.10;;;10.30;99.90;;;;;;4996419;28;20613;-75
2023/04/11 08:33:53;;;;;;;6.43;3.40;;;10.40;99.90;;;;;;4998843;28;20736;-75
2023/04/11 08:36:18;;;;;;;6.63;3.23;;;10.40;99.90;;;;;;5001981;28;20224;-74
2023/04/11 08:38:44;;;;;;;5.57;3.13;;;10.40;99.90;;;;;;4999584;28;20216;-75
2023/04/11 08:41:11;;;;;;;4.73;2.87;;;10.50;99.90;;;;;;5005848;28;20283;-75
2023/04/11 08:43:38;;;;;;;6.07;3.33;;;10.60;99.90;;;;;;4997898;28;20225;-74
2023/04/11 08:46:06;;;;;;;7.33;3.40;;;10.70;99.90;;;;;;4998073;28;20184;-74
2023/04/11 08:48:32;;;;;;;5.53;2.40;;;10.80;99.90;;;;;;4997183;28;20217;-76
2023/04/11 08:50:58;;;;;;;6.03;2.67;;;10.70;99.90;;;;;;4982674;28;20217;-76
2023/04/11 08:53:25;;;;;;;5.27;2.40;;;10.60;99.90;;;;;;4998599;28;20576;-76
2023/04/11 08:55:51;;;;;;;5.93;2.60;;;10.60;99.90;;;;;;4997270;28;20698;-74
2023/04/11 08:58:17;;;;;;;4.90;2.17;;;10.70;99.90;;;;;;5001896;28;20206;-76
2023/04/11 09:00:43;;;;;;;5.50;2.67;;;10.70;99.90;;;;;;4997946;28;20633;-76
2023/04/11 09:03:11;;;;;;;5.60;2.53;;;10.70;99.90;;;;;;5000983;28;20241;-76
2023/04/11 09:05:42;;;;;;;6.53;3.47;;;10.70;99.90;;;;;;5001168;28;20295;-76
2023/04/11 09:08:11;;;;;;;6.40;2.30;;;10.50;99.90;;;;;;5002289;28;20214;-76
2023/04/11 09:10:39;;;;;;;6.47;2.53;;;10.60;99.90;;;;;;4993265;28;20244;-76
2023/04/11 09:13:26;;;;;;;12.23;6.63;;;10.90;99.90;;;;;;4999923;28;20185;-76
2023/04/11 09:16:11;;;;;;;5.30;2.80;;;11.10;99.90;;;;;;5006823;28;20221;-74
2023/04/11 09:18:42;;;;;;;6.23;2.63;;;11.30;99.90;;;;;;4998903;28;20656;-76
2023/04/11 09:21:11;;;;;;;6.43;2.10;;;11.50;99.90;;;;;;5020670;28;20216;-74
2023/04/11 09:23:37;;;;;;;7.33;2.70;;;11.60;99.90;;;;;;4989789;28;20518;-74
2023/04/11 09:26:10;;;;;;;5.50;2.10;;;11.60;99.90;;;;;;5001863;28;20448;-76
2023/04/11 09:28:44;;;;;;;6.33;2.80;;;11.80;99.90;;;;;;4994395;28;20221;-73
2023/04/11 09:31:13;;;;;;;7.03;1.97;;;12.00;99.90;;;;;;4996073;28;20182;-76
2023/04/11 09:33:50;;;;;;;9.00;2.40;;;12.10;99.90;;;;;;5000350;28;20189;-75
2023/04/11 09:36:21;;;;;;;4.45;2.10;;;12.10;99.90;;;;;;4997505;28;20225;-76
2023/04/11 09:38:46;;;;;;;8.20;2.28;;;12.50;99.90;;;;;;4993493;28;20275;-75
2023/04/11 09:41:12;;;;;;;8.13;2.20;;;13.00;99.90;;;;;;4998028;28;20688;-76
2023/04/11 09:43:54;;;;;;;4.13;2.10;;;13.20;99.90;;;;;;5001860;28;20217;-75
2023/04/11 09:46:20;;;;;;;7.85;2.08;;;12.80;99.90;;;;;;4995851;28;20209;-76
2023/04/11 09:48:50;;;;;;;6.13;2.53;;;12.80;99.90;;;;;;5003555;28;20185;-76
2023/04/11 09:51:16;;;;;;;9.23;2.70;;;12.80;99.90;;;;;;5002084;28;20215;-76
2023/04/11 09:53:42;;;;;;;10.32;1.77;;;12.90;99.90;;;;;;4997368;28;20206;-76
2023/04/11 09:56:09;;;;;;;8.77;2.30;;;12.80;99.90;;;;;;5001499;28;20753;-76
2023/04/11 09:58:36;;;;;;;9.10;2.10;;;12.60;99.90;;;;;;5000807;28;20206;-74
2023/04/11 10:01:06;;;;;;;7.97;2.05;;;12.50;99.90;;;;;;5008642;28;20166;-75
2023/04/11 10:03:37;;;;;;;5.63;2.15;;;12.70;99.90;;;;;;5002319;28;20325;-75
2023/04/11 10:06:08;;;;;;;6.45;2.22;;;12.70;99.90;;;;;;5003658;28;20705;-76
2023/04/11 10:08:38;;;;;;;6.93;2.05;;;13.20;99.90;;;;;;4991603;28;20201;-76
2023/04/11 10:11:07;;;;;;;6.07;2.15;;;13.00;99.90;;;;;;4999134;28;20197;-76
2023/04/11 10:13:42;;;;;;;9.80;2.45;;;13.00;99.90;;;;;;4999334;28;20212;-76
2023/04/11 10:16:15;;;;;;;5.78;1.75;;;13.20;99.90;;;;;;4997931;28;20181;-77
2023/04/11 10:19:00;;;;;;;4.43;1.67;;;13.50;99.90;;;;;;5009924;28;20675;-75
2023/04/11 10:21:31;;;;;;;3.58;1.30;;;13.90;99.90;;;;;;5001818;28;20622;-76
2023/04/11 10:24:09;;;;;;;5.30;1.60;;;14.00;99.90;;;;;;4999471;28;20236;-76
2023/04/11 10:26:59;;;;;;;4.18;2.20;;;14.00;99.90;;;;;;5003399;28;20323;-75
2023/04/11 10:29:39;;;;;;;2.97;1.55;;;14.00;99.90;;;;;;5003763;28;20212;-76
2023/04/11 10:32:17;;;;;;;3.67;1.52;;;14.20;99.90;;;;;;5002274;28;20282;-77
2023/04/11 10:34:49;;;;;;;2.80;1.73;;;14.40;99.90;;;;;;5002580;28;20216;-76
2023/04/11 10:37:31;;;;;;;5.53;1.30;;;14.20;99.90;;;;;;5004333;28;20546;-76
2023/04/11 10:39:59;;;;;;;6.30;1.30;;;14.20;99.90;;;;;;5002106;28;20179;-75
2023/04/11 10:42:30;;;;;;;4.15;1.52;;;14.20;99.90;;;;;;5003419;28;20255;-76
2023/04/11 10:45:24;;;;;;;5.35;1.80;;;14.40;99.90;;;;;;5018541;28;20260;-76
2023/04/11 10:47:50;;;;;;;2.40;1.48;;;14.80;99.90;;;;;;5000418;28;20244;-77
2023/04/11 10:50:27;;;;;;;5.15;1.60;;;14.90;99.90;;;;;;5002618;28;20735;-75
2023/04/11 10:52:59;;;;;;;5.20;1.80;;;14.70;99.90;;;;;;5002389;28;20266;-76
2023/04/11 10:55:27;;;;;;;5.95;1.60;;;14.60;99.90;;;;;;5000433;28;20264;-75
2023/04/11 10:58:15;;;;;;;5.15;1.58;;;14.40;99.90;;;;;;4999127;28;20205;-75
2023/04/11 11:00:50;;;;;;;5.15;1.50;;;14.20;99.90;;;;;;5001948;28;20232;-74
2023/04/11 11:03:17;;;;;;;3.78;1.65;;;14.00;99.90;;;;;;5010347;28;20622;-75
2023/04/11 11:05:43;;;;;;;4.72;1.38;;;13.90;99.90;;;;;;5005102;28;20205;-75
2023/04/11 11:08:09;;;;;;;4.45;1.77;;;13.70;99.90;;;;;;5008655;28;20206;-75
2023/04/11 11:10:43;;;;;;;4.03;1.60;;;13.60;99.90;;;;;;5006038;28;20281;-75
2023/04/11 11:13:09;;;;;;;3.13;1.60;;;13.60;99.90;;;;;;5009045;28;20181;-75
2023/04/11 11:15:38;;;;;;;4.50;1.83;;;13.80;99.90;;;;;;5010921;28;20683;-75
2023/04/11 11:18:09;;;;;;;5.68;1.38;;;13.90;99.90;;;;;;5007048;28;20317;-74
2023/04/11 11:20:36;;;;;;;3.22;1.42;;;13.80;99.90;;;;;;5010342;28;20215;-75
2023/04/11 11:23:07;;;;;;;3.45;1.50;;;13.80;99.90;;;;;;5007698;28;20233;-76
2023/04/11 11:25:33;;;;;;;2.78;1.40;;;13.90;99.90;;;;;;5000649;28;20232;-75
2023/04/11 11:28:04;;;;;;;3.83;1.13;;;13.90;99.90;;;;;;5013071;28;20248;-75
2023/04/11 11:30:30;;;;;;;1.17;1.00;;;13.80;99.90;;;;;;5006832;28;20205;-74
2023/04/11 11:32:56;;;;;;;2.28;1.10;;;13.80;99.90;;;;;;5000780;28;20212;-75
2023/04/11 11:35:23;;;;;;;3.85;2.20;;;13.90;99.90;;;;;;5002751;28;20244;-74
2023/04/11 11:37:53;;;;;;;2.75;1.70;;;14.00;99.90;;;;;;5000752;28;20217;-76
2023/04/11 11:40:22;;;;;;;3.67;1.95;;;14.00;99.90;;;;;;5002768;28;20236;-75
2023/04/11 11:42:51;;;;;;;2.13;1.60;;;13.70;99.90;;;;;;4999622;28;20174;-74
2023/04/11 11:45:18;;;;;;;2.28;1.55;;;13.70;99.90;;;;;;5002186;28;20301;-75
2023/04/11 11:47:45;;;;;;;4.95;2.30;;;13.80;99.90;;;;;;4999275;28;20252;-74
2023/04/11 11:50:22;;;;;;;3.08;1.58;;;13.80;99.90;;;;;;5000087;28;20218;-75
2023/04/11 11:52:48;;;;;;;4.55;1.58;;;13.90;99.90;;;;;;4999040;28;20763;-75
2023/04/11 11:55:16;;;;;;;3.63;2.08;;;13.80;99.90;;;;;;5004720;28;20255;-74
2023/04/11 11:57:46;;;;;;;5.30;1.90;;;13.80;99.90;;;;;;5000421;28;20306;-76
2023/04/11 12:00:13;;;;;;;2.83;1.20;;;13.80;99.90;;;;;;5003233;28;20272;-76
2023/04/11 12:02:42;;;;;;;3.75;1.40;;;13.90;99.90;;;;;;4999679;28;20205;-76
2023/04/11 12:05:10;;;;;;;5.95;1.35;;;13.80;99.90;;;;;;4995288;28;20209;-75
2023/04/11 12:07:37;;;;;;;1.70;0.77;;;13.70;99.90;;;;;;5001357;28;20275;-75
2023/04/11 12:10:07;;;;;;;4.50;0.88;;;13.30;99.90;;;;;;4994615;28;20174;-75
2023/04/11 12:12:34;;;;;;;3.00;1.25;;;13.30;99.90;;;;;;5003985;28;20268;-75
2023/04/11 12:15:02;;;;;;;3.08;1.02;;;13.30;99.90;;;;;;4997886;28;20213;-76
2023/04/11 12:17:32;;;;;;;1.73;1.10;;;13.30;99.90;;;;;;4999873;28;20201;-75
2023/04/11 12:19:59;;;;;;;3.63;1.40;;;13.10;99.90;;;;;;5002535;28;20213;-76
2023/04/11 12:22:25;;;;;;;2.90;1.02;;;13.30;99.90;;;;;;5002598;28;20264;-74
2023/04/11 12:25:04;;;;;;;2.95;1.58;;;13.50;99.90;;;;;;4998794;28;20291;-76
2023/04/11 12:27:32;;;;;;;2.35;1.05;;;13.70;99.90;;;;;;5000538;28;20225;-74
2023/04/11 12:29:58;;;;;;;2.60;1.02;;;13.90;99.90;;;;;;4998590;28;20263;-75
2023/04/11 12:32:23;;;;;;;2.92;1.35;;;13.90;99.90;;;;;;4999214;28;20201;-76
2023/04/11 12:34:49;;;;;;;2.92;1.25;;;13.90;99.90;;;;;;5001138;28;20218;-75
2023/04/11 12:37:14;;;;;;;1.27;1.05;;;13.70;99.90;;;;;;5005997;28;20699;-76
2023/04/11 12:39:41;;;;;;;3.60;1.77;;;13.50;99.90;;;;;;5000311;28;20176;-75
2023/04/11 12:42:06;;;;;;;1.55;0.90;;;13.50;99.90;;;;;;4999116;28;20688;-75
2023/04/11 12:44:32;;;;;;;3.78;1.20;;;13.60;99.90;;;;;;4990587;28;20221;-74